sensor_id;sensor_type;location;lat;lon;timestamp;P1;durP1;ratioP1;P2;durP2;ratioP2
35324;SDS011;35135;47.510;19.036;2023-02-13T00:00:46;8.07;;;7.10;;
35324;SDS011;35135;47.510;19.036;2023-02-13T00:03:12;7.72;;;6.93;;
35324;SDS011;35135;47.510;19.036;2023-02-13T00:05:38;6.85;;;6.15;;
35324;SDS011;35135;47.510;19.036;2023-02-13T00:08:03;8.27;;;7.47;;
35324;SDS011;35135;47.510;19.036;2023-02-13T00:10:29;6.90;;;6.22;;
35324;SDS011;35135;47.510;19.036;2023-02-13T00:12:55;7.65;;;6.85;;
35324;SDS011;35135;47.510;19.036;2023-02-13T00:15:20;8.10;;;7.18;;
35324;SDS011;35135;47.510;19.036;2023-02-13T00:17:46;7.47;;;6.78;;
35324;SDS011;35135;47.510;19.036;2023-02-13T00:20:12;7.45;;;6.75;;
35324;SDS011;35135;47.510;19.036;2023-02-13T00:22:38;7.93;;;7.13;;
35324;SDS011;35135;47.510;19.036;2023-02-13T00:25:04;7.78;;;6.95;;
35324;SDS011;35135;47.510;19.036;2023-02-13T00:27:30;7.53;;;6.75;;
35324;SDS011;35135;47.510;19.036;2023-02-13T00:29:56;7.50;;;6.70;;
35324;SDS011;35135;47.510;19.036;2023-02-13T00:32:22;7.35;;;6.65;;
35324;SDS011;35135;47.510;19.036;2023-02-13T00:34:47;7.57;;;6.85;;
35324;SDS011;35135;47.510;19.036;2023-02-13T00:37:13;8.00;;;7.00;;
35324;SDS011;35135;47.510;19.036;2023-02-13T00:39:39;7.80;;;7.05;;
35324;SDS011;35135;47.510;19.036;2023-02-13T00:42:05;8.43;;;7.63;;
35324;SDS011;35135;47.510;19.036;2023-02-13T00:44:31;8.77;;;7.88;;
35324;SDS011;35135;47.510;19.036;2023-02-13T00:46:57;8.10;;;7.30;;
35324;SDS011;35135;47.510;19.036;2023-02-13T00:49:22;7.82;;;7.13;;
35324;SDS011;35135;47.510;19.036;2023-02-13T00:51:48;8.00;;;7.20;;
35324;SDS011;35135;47.510;19.036;2023-02-13T00:54:14;8.35;;;7.28;;
35324;SDS011;35135;47.510;19.036;2023-02-13T00:56:39;7.30;;;6.57;;
35324;SDS011;35135;47.510;19.036;2023-02-13T00:59:05;8.30;;;7.18;;
35324;SDS011;35135;47.510;19.036;2023-02-13T01:01:31;8.35;;;7.40;;
35324;SDS011;35135;47.510;19.036;2023-02-13T01:03:56;9.50;;;7.53;;
35324;SDS011;35135;47.510;19.036;2023-02-13T01:06:22;8.90;;;7.57;;
35324;SDS011;35135;47.510;19.036;2023-02-13T01:08:48;8.18;;;7.35;;
35324;SDS011;35135;47.510;19.036;2023-02-13T01:11:13;8.52;;;7.63;;
35324;SDS011;35135;47.510;19.036;2023-02-13T01:13:39;8.23;;;7.43;;
35324;SDS011;35135;47.510;19.036;2023-02-13T01:16:05;8.13;;;7.07;;
35324;SDS011;35135;47.510;19.036;2023-02-13T01:18:31;8.32;;;7.43;;
35324;SDS011;35135;47.510;19.036;2023-02-13T01:20:59;8.35;;;7.55;;
35324;SDS011;35135;47.510;19.036;2023-02-13T01:23:33;7.80;;;6.95;;
35324;SDS011;35135;47.510;19.036;2023-02-13T01:26:03;7.78;;;6.97;;
35324;SDS011;35135;47.510;19.036;2023-02-13T01:28:30;7.35;;;6.65;;
35324;SDS011;35135;47.510;19.036;2023-02-13T01:30:57;7.85;;;7.05;;
35324;SDS011;35135;47.510;19.036;2023-02-13T01:33:23;7.95;;;6.85;;
35324;SDS011;35135;47.510;19.036;2023-02-13T01:35:51;8.10;;;7.30;;
35324;SDS011;35135;47.510;19.036;2023-02-13T01:38:17;8.45;;;7.55;;
35324;SDS011;35135;47.510;19.036;2023-02-13T01:40:44;8.05;;;7.25;;
35324;SDS011;35135;47.510;19.036;2023-02-13T01:43:14;8.15;;;7.35;;
35324;SDS011;35135;47.510;19.036;2023-02-13T01:45:40;7.25;;;6.55;;
35324;SDS011;35135;47.510;19.036;2023-02-13T01:48:18;7.53;;;6.72;;
35324;SDS011;35135;47.510;19.036;2023-02-13T01:53:18;7.28;;;6.55;;
35324;SDS011;35135;47.510;19.036;2023-02-13T01:56:36;7.75;;;6.95;;
35324;SDS011;35135;47.510;19.036;2023-02-13T01:58:46;7.35;;;6.65;;
35324;SDS011;35135;47.510;19.036;2023-02-13T02:01:15;8.13;;;6.60;;
35324;SDS011;35135;47.510;19.036;2023-02-13T02:03:43;8.93;;;7.28;;
35324;SDS011;35135;47.510;19.036;2023-02-13T02:06:11;8.00;;;7.15;;
35324;SDS011;35135;47.510;19.036;2023-02-13T02:11:10;7.53;;;6.75;;
35324;SDS011;35135;47.510;19.036;2023-02-13T02:13:44;8.13;;;6.95;;
35324;SDS011;35135;47.510;19.036;2023-02-13T02:16:11;7.65;;;6.65;;
35324;SDS011;35135;47.510;19.036;2023-02-13T02:18:36;7.50;;;6.70;;
35324;SDS011;35135;47.510;19.036;2023-02-13T02:34:49;7.80;;;6.97;;
35324;SDS011;35135;47.510;19.036;2023-02-13T02:40:01;7.68;;;6.97;;
35324;SDS011;35135;47.510;19.036;2023-02-13T02:45:32;7.20;;;6.30;;
35324;SDS011;35135;47.510;19.036;2023-02-13T02:54:00;7.00;;;6.30;;
35324;SDS011;35135;47.510;19.036;2023-02-13T02:59:15;7.70;;;6.85;;
35324;SDS011;35135;47.510;19.036;2023-02-13T03:02:03;7.15;;;6.43;;
35324;SDS011;35135;47.510;19.036;2023-02-13T03:04:52;7.35;;;6.60;;
35324;SDS011;35135;47.510;19.036;2023-02-13T03:07:39;6.93;;;6.22;;
35324;SDS011;35135;47.510;19.036;2023-02-13T03:10:06;8.07;;;6.65;;
35324;SDS011;35135;47.510;19.036;2023-02-13T03:13:00;6.95;;;6.28;;
35324;SDS011;35135;47.510;19.036;2023-02-13T03:15:45;7.07;;;6.38;;
35324;SDS011;35135;47.510;19.036;2023-02-13T03:18:34;8.60;;;6.60;;
35324;SDS011;35135;47.510;19.036;2023-02-13T03:21:29;6.97;;;6.28;;
35324;SDS011;35135;47.510;19.036;2023-02-13T03:24:45;7.07;;;6.38;;
35324;SDS011;35135;47.510;19.036;2023-02-13T03:27:33;7.30;;;6.47;;
35324;SDS011;35135;47.510;19.036;2023-02-13T03:33:29;6.68;;;6.07;;
35324;SDS011;35135;47.510;19.036;2023-02-13T03:38:49;7.15;;;6.40;;
35324;SDS011;35135;47.510;19.036;2023-02-13T03:41:20;7.07;;;6.43;;
35324;SDS011;35135;47.510;19.036;2023-02-13T03:46:58;6.90;;;6.18;;
35324;SDS011;35135;47.510;19.036;2023-02-13T03:49:28;7.53;;;6.40;;
35324;SDS011;35135;47.510;19.036;2023-02-13T03:52:30;6.40;;;5.80;;
35324;SDS011;35135;47.510;19.036;2023-02-13T03:58:30;6.80;;;6.07;;
35324;SDS011;35135;47.510;19.036;2023-02-13T04:01:21;6.68;;;6.07;;
35324;SDS011;35135;47.510;19.036;2023-02-13T04:06:31;6.53;;;5.93;;
35324;SDS011;35135;47.510;19.036;2023-02-13T04:09:10;7.13;;;6.43;;
35324;SDS011;35135;47.510;19.036;2023-02-13T04:11:38;7.00;;;6.28;;
35324;SDS011;35135;47.510;19.036;2023-02-13T04:17:13;6.18;;;5.57;;
35324;SDS011;35135;47.510;19.036;2023-02-13T04:20:00;6.88;;;6.18;;
35324;SDS011;35135;47.510;19.036;2023-02-13T04:22:26;7.32;;;6.43;;
35324;SDS011;35135;47.510;19.036;2023-02-13T04:24:51;7.45;;;6.65;;
35324;SDS011;35135;47.510;19.036;2023-02-13T04:27:17;7.75;;;6.53;;
35324;SDS011;35135;47.510;19.036;2023-02-13T04:29:43;7.18;;;6.47;;
35324;SDS011;35135;47.510;19.036;2023-02-13T04:32:09;7.93;;;7.05;;
35324;SDS011;35135;47.510;19.036;2023-02-13T04:34:35;6.53;;;5.93;;
35324;SDS011;35135;47.510;19.036;2023-02-13T04:37:02;7.07;;;6.38;;
35324;SDS011;35135;47.510;19.036;2023-02-13T04:39:27;7.30;;;6.57;;
35324;SDS011;35135;47.510;19.036;2023-02-13T04:41:53;6.70;;;6.10;;
35324;SDS011;35135;47.510;19.036;2023-02-13T04:44:19;7.05;;;6.35;;
35324;SDS011;35135;47.510;19.036;2023-02-13T04:46:44;7.03;;;6.32;;
35324;SDS011;35135;47.510;19.036;2023-02-13T04:49:10;7.25;;;6.55;;
35324;SDS011;35135;47.510;19.036;2023-02-13T04:51:36;7.10;;;6.40;;
35324;SDS011;35135;47.510;19.036;2023-02-13T04:54:01;6.88;;;6.13;;
35324;SDS011;35135;47.510;19.036;2023-02-13T04:56:27;7.28;;;6.30;;
35324;SDS011;35135;47.510;19.036;2023-02-13T04:58:53;7.43;;;6.63;;
35324;SDS011;35135;47.510;19.036;2023-02-13T05:01:20;7.38;;;6.68;;
35324;SDS011;35135;47.510;19.036;2023-02-13T05:03:46;7.07;;;6.38;;
35324;SDS011;35135;47.510;19.036;2023-02-13T05:06:12;6.38;;;5.78;;
35324;SDS011;35135;47.510;19.036;2023-02-13T05:08:37;7.38;;;6.63;;
35324;SDS011;35135;47.510;19.036;2023-02-13T05:11:04;6.63;;;5.93;;
35324;SDS011;35135;47.510;19.036;2023-02-13T05:13:29;7.13;;;6.43;;
35324;SDS011;35135;47.510;19.036;2023-02-13T05:15:55;6.97;;;6.28;;
35324;SDS011;35135;47.510;19.036;2023-02-13T05:18:21;6.53;;;5.90;;
35324;SDS011;35135;47.510;19.036;2023-02-13T05:20:46;6.50;;;5.90;;
35324;SDS011;35135;47.510;19.036;2023-02-13T05:23:35;6.32;;;5.72;;
35324;SDS011;35135;47.510;19.036;2023-02-13T05:26:01;6.25;;;5.35;;
35324;SDS011;35135;47.510;19.036;2023-02-13T05:28:27;6.60;;;5.90;;
35324;SDS011;35135;47.510;19.036;2023-02-13T05:31:11;6.97;;;6.10;;
35324;SDS011;35135;47.510;19.036;2023-02-13T05:33:37;6.25;;;5.65;;
35324;SDS011;35135;47.510;19.036;2023-02-13T05:36:03;6.45;;;5.85;;
35324;SDS011;35135;47.510;19.036;2023-02-13T05:38:29;6.28;;;5.68;;
35324;SDS011;35135;47.510;19.036;2023-02-13T05:40:57;6.82;;;6.13;;
35324;SDS011;35135;47.510;19.036;2023-02-13T05:43:24;6.65;;;5.93;;
35324;SDS011;35135;47.510;19.036;2023-02-13T05:45:50;6.35;;;5.75;;
35324;SDS011;35135;47.510;19.036;2023-02-13T05:48:16;7.68;;;6.28;;
35324;SDS011;35135;47.510;19.036;2023-02-13T05:50:42;6.70;;;5.82;;
35324;SDS011;35135;47.510;19.036;2023-02-13T05:53:10;6.32;;;5.72;;
35324;SDS011;35135;47.510;19.036;2023-02-13T05:55:35;7.47;;;6.78;;
35324;SDS011;35135;47.510;19.036;2023-02-13T05:58:02;6.80;;;5.82;;
35324;SDS011;35135;47.510;19.036;2023-02-13T06:00:28;6.75;;;5.93;;
35324;SDS011;35135;47.510;19.036;2023-02-13T06:02:54;6.72;;;6.00;;
35324;SDS011;35135;47.510;19.036;2023-02-13T06:05:19;7.22;;;5.88;;
35324;SDS011;35135;47.510;19.036;2023-02-13T06:07:45;6.15;;;5.55;;
35324;SDS011;35135;47.510;19.036;2023-02-13T06:10:10;6.03;;;5.40;;
35324;SDS011;35135;47.510;19.036;2023-02-13T06:12:36;6.28;;;5.63;;
35324;SDS011;35135;47.510;19.036;2023-02-13T06:15:02;6.57;;;5.88;;
35324;SDS011;35135;47.510;19.036;2023-02-13T06:17:28;6.20;;;5.60;;
35324;SDS011;35135;47.510;19.036;2023-02-13T06:19:53;6.28;;;5.68;;
35324;SDS011;35135;47.510;19.036;2023-02-13T06:22:19;5.75;;;5.20;;
35324;SDS011;35135;47.510;19.036;2023-02-13T06:24:45;6.13;;;5.50;;
35324;SDS011;35135;47.510;19.036;2023-02-13T06:27:10;6.43;;;5.82;;
35324;SDS011;35135;47.510;19.036;2023-02-13T06:29:36;6.20;;;5.60;;
35324;SDS011;35135;47.510;19.036;2023-02-13T06:32:02;5.85;;;5.22;;
35324;SDS011;35135;47.510;19.036;2023-02-13T06:34:28;6.20;;;5.45;;
35324;SDS011;35135;47.510;19.036;2023-02-13T06:36:53;6.18;;;5.40;;
35324;SDS011;35135;47.510;19.036;2023-02-13T06:39:19;6.13;;;5.53;;
35324;SDS011;35135;47.510;19.036;2023-02-13T06:41:45;6.43;;;5.82;;
35324;SDS011;35135;47.510;19.036;2023-02-13T06:44:10;6.47;;;5.53;;
35324;SDS011;35135;47.510;19.036;2023-02-13T06:46:36;5.97;;;5.38;;
35324;SDS011;35135;47.510;19.036;2023-02-13T06:49:01;5.78;;;5.15;;
35324;SDS011;35135;47.510;19.036;2023-02-13T06:51:27;5.68;;;5.07;;
35324;SDS011;35135;47.510;19.036;2023-02-13T06:53:53;5.80;;;5.20;;
35324;SDS011;35135;47.510;19.036;2023-02-13T06:56:18;6.50;;;5.88;;
35324;SDS011;35135;47.510;19.036;2023-02-13T06:58:44;7.13;;;6.25;;
35324;SDS011;35135;47.510;19.036;2023-02-13T07:01:10;6.32;;;5.72;;
35324;SDS011;35135;47.510;19.036;2023-02-13T07:03:36;6.32;;;5.72;;
35324;SDS011;35135;47.510;19.036;2023-02-13T07:06:02;6.63;;;5.97;;
35324;SDS011;35135;47.510;19.036;2023-02-13T07:08:27;6.07;;;5.45;;
35324;SDS011;35135;47.510;19.036;2023-02-13T07:10:54;7.13;;;6.10;;
35324;SDS011;35135;47.510;19.036;2023-02-13T07:13:19;6.60;;;5.85;;
35324;SDS011;35135;47.510;19.036;2023-02-13T07:15:45;7.15;;;6.25;;
35324;SDS011;35135;47.510;19.036;2023-02-13T07:18:11;7.63;;;5.88;;
35324;SDS011;35135;47.510;19.036;2023-02-13T07:20:37;6.18;;;5.57;;
35324;SDS011;35135;47.510;19.036;2023-02-13T07:23:03;7.70;;;6.03;;
35324;SDS011;35135;47.510;19.036;2023-02-13T07:25:30;6.60;;;5.95;;
35324;SDS011;35135;47.510;19.036;2023-02-13T07:28:00;7.30;;;6.45;;
35324;SDS011;35135;47.510;19.036;2023-02-13T07:30:30;8.60;;;6.82;;
35324;SDS011;35135;47.510;19.036;2023-02-13T07:33:03;6.45;;;5.85;;
35324;SDS011;35135;47.510;19.036;2023-02-13T07:35:29;7.00;;;6.28;;
35324;SDS011;35135;47.510;19.036;2023-02-13T07:37:55;7.35;;;6.53;;
35324;SDS011;35135;47.510;19.036;2023-02-13T07:40:21;8.00;;;6.32;;
35324;SDS011;35135;47.510;19.036;2023-02-13T07:42:46;8.27;;;6.32;;
35324;SDS011;35135;47.510;19.036;2023-02-13T07:45:12;6.78;;;6.05;;
35324;SDS011;35135;47.510;19.036;2023-02-13T07:47:40;6.63;;;5.93;;
35324;SDS011;35135;47.510;19.036;2023-02-13T07:50:06;7.45;;;6.53;;
35324;SDS011;35135;47.510;19.036;2023-02-13T07:52:32;7.15;;;6.53;;
35324;SDS011;35135;47.510;19.036;2023-02-13T07:54:58;7.72;;;6.20;;
35324;SDS011;35135;47.510;19.036;2023-02-13T07:57:24;7.63;;;6.88;;
35324;SDS011;35135;47.510;19.036;2023-02-13T07:59:49;8.00;;;6.93;;
35324;SDS011;35135;47.510;19.036;2023-02-13T08:02:15;7.22;;;6.53;;
35324;SDS011;35135;47.510;19.036;2023-02-13T08:04:41;7.45;;;6.63;;
35324;SDS011;35135;47.510;19.036;2023-02-13T08:07:10;9.13;;;7.38;;
35324;SDS011;35135;47.510;19.036;2023-02-13T08:09:36;7.80;;;6.93;;
35324;SDS011;35135;47.510;19.036;2023-02-13T08:12:20;7.35;;;6.65;;
35324;SDS011;35135;47.510;19.036;2023-02-13T08:14:46;7.53;;;6.72;;
35324;SDS011;35135;47.510;19.036;2023-02-13T08:17:12;7.88;;;6.63;;
35324;SDS011;35135;47.510;19.036;2023-02-13T08:19:38;8.30;;;7.22;;
35324;SDS011;35135;47.510;19.036;2023-02-13T08:22:04;8.45;;;7.55;;
35324;SDS011;35135;47.510;19.036;2023-02-13T08:24:30;9.68;;;7.22;;
35324;SDS011;35135;47.510;19.036;2023-02-13T08:26:57;8.43;;;7.47;;
35324;SDS011;35135;47.510;19.036;2023-02-13T08:29:22;7.57;;;6.78;;
35324;SDS011;35135;47.510;19.036;2023-02-13T08:31:48;8.95;;;7.95;;
35324;SDS011;35135;47.510;19.036;2023-02-13T08:34:14;9.02;;;6.90;;
35324;SDS011;35135;47.510;19.036;2023-02-13T08:36:39;8.63;;;7.72;;
35324;SDS011;35135;47.510;19.036;2023-02-13T08:39:05;8.18;;;7.38;;
35324;SDS011;35135;47.510;19.036;2023-02-13T08:41:32;8.90;;;7.95;;
35324;SDS011;35135;47.510;19.036;2023-02-13T08:43:58;8.60;;;7.70;;
35324;SDS011;35135;47.510;19.036;2023-02-13T08:46:23;8.60;;;7.75;;
35324;SDS011;35135;47.510;19.036;2023-02-13T08:48:49;8.15;;;7.35;;
35324;SDS011;35135;47.510;19.036;2023-02-13T08:51:15;9.30;;;7.97;;
35324;SDS011;35135;47.510;19.036;2023-02-13T08:53:40;8.00;;;7.20;;
35324;SDS011;35135;47.510;19.036;2023-02-13T08:56:07;8.45;;;7.55;;
35324;SDS011;35135;47.510;19.036;2023-02-13T08:58:33;7.90;;;7.10;;
35324;SDS011;35135;47.510;19.036;2023-02-13T09:00:58;8.05;;;7.22;;
35324;SDS011;35135;47.510;19.036;2023-02-13T09:03:24;8.27;;;7.35;;
35324;SDS011;35135;47.510;19.036;2023-02-13T09:05:50;8.05;;;7.18;;
35324;SDS011;35135;47.510;19.036;2023-02-13T09:08:15;8.00;;;7.20;;
35324;SDS011;35135;47.510;19.036;2023-02-13T09:10:41;8.40;;;7.50;;
35324;SDS011;35135;47.510;19.036;2023-02-13T09:13:10;8.15;;;7.35;;
35324;SDS011;35135;47.510;19.036;2023-02-13T09:15:39;8.75;;;7.22;;
35324;SDS011;35135;47.510;19.036;2023-02-13T09:18:05;8.05;;;7.25;;
35324;SDS011;35135;47.510;19.036;2023-02-13T09:20:31;8.35;;;7.55;;
35324;SDS011;35135;47.510;19.036;2023-02-13T09:22:57;8.15;;;7.30;;
35324;SDS011;35135;47.510;19.036;2023-02-13T09:25:23;8.63;;;7.72;;
35324;SDS011;35135;47.510;19.036;2023-02-13T09:27:49;8.55;;;7.75;;
35324;SDS011;35135;47.510;19.036;2023-02-13T09:30:14;8.60;;;7.70;;
35324;SDS011;35135;47.510;19.036;2023-02-13T09:32:47;7.65;;;6.93;;
35324;SDS011;35135;47.510;19.036;2023-02-13T09:35:14;8.00;;;7.20;;
35324;SDS011;35135;47.510;19.036;2023-02-13T09:37:40;8.32;;;7.50;;
35324;SDS011;35135;47.510;19.036;2023-02-13T09:40:09;8.10;;;6.90;;
35324;SDS011;35135;47.510;19.036;2023-02-13T09:43:03;7.85;;;7.05;;
35324;SDS011;35135;47.510;19.036;2023-02-13T09:45:32;8.70;;;7.22;;
35324;SDS011;35135;47.510;19.036;2023-02-13T09:47:59;8.32;;;7.18;;
35324;SDS011;35135;47.510;19.036;2023-02-13T09:50:25;7.75;;;6.95;;
35324;SDS011;35135;47.510;19.036;2023-02-13T09:52:55;8.43;;;7.35;;
35324;SDS011;35135;47.510;19.036;2023-02-13T09:55:30;8.82;;;7.85;;
35324;SDS011;35135;47.510;19.036;2023-02-13T09:58:08;7.78;;;7.03;;
35324;SDS011;35135;47.510;19.036;2023-02-13T10:00:43;8.23;;;7.38;;
35324;SDS011;35135;47.510;19.036;2023-02-13T10:08:26;7.57;;;6.82;;
35324;SDS011;35135;47.510;19.036;2023-02-13T10:14:42;7.85;;;7.05;;
35324;SDS011;35135;47.510;19.036;2023-02-13T10:17:20;8.02;;;7.05;;
35324;SDS011;35135;47.510;19.036;2023-02-13T10:20:04;8.63;;;6.90;;
35324;SDS011;35135;47.510;19.036;2023-02-13T10:22:55;7.40;;;6.63;;
35324;SDS011;35135;47.510;19.036;2023-02-13T10:25:45;7.47;;;6.78;;
35324;SDS011;35135;47.510;19.036;2023-02-13T10:31:09;8.20;;;7.40;;
35324;SDS011;35135;47.510;19.036;2023-02-13T10:33:45;8.93;;;7.15;;
35324;SDS011;35135;47.510;19.036;2023-02-13T10:36:18;8.13;;;7.30;;
35324;SDS011;35135;47.510;19.036;2023-02-13T10:41:31;7.60;;;6.85;;
35324;SDS011;35135;47.510;19.036;2023-02-13T10:46:50;7.25;;;6.55;;
35324;SDS011;35135;47.510;19.036;2023-02-13T10:54:39;7.80;;;6.75;;
35324;SDS011;35135;47.510;19.036;2023-02-13T11:00:23;7.60;;;6.80;;
35324;SDS011;35135;47.510;19.036;2023-02-13T11:03:01;7.10;;;6.40;;
35324;SDS011;35135;47.510;19.036;2023-02-13T11:05:32;7.75;;;6.95;;
35324;SDS011;35135;47.510;19.036;2023-02-13T11:08:04;7.63;;;6.93;;
35324;SDS011;35135;47.510;19.036;2023-02-13T11:10:45;7.47;;;6.72;;
35324;SDS011;35135;47.510;19.036;2023-02-13T11:13:29;7.32;;;6.63;;
35324;SDS011;35135;47.510;19.036;2023-02-13T11:16:02;8.93;;;7.00;;
35324;SDS011;35135;47.510;19.036;2023-02-13T11:18:29;6.70;;;6.00;;
35324;SDS011;35135;47.510;19.036;2023-02-13T11:21:08;7.80;;;7.00;;
35324;SDS011;35135;47.510;19.036;2023-02-13T11:23:43;7.13;;;6.40;;
35324;SDS011;35135;47.510;19.036;2023-02-13T11:26:22;7.20;;;6.50;;
35324;SDS011;35135;47.510;19.036;2023-02-13T11:28:53;7.55;;;6.85;;
35324;SDS011;35135;47.510;19.036;2023-02-13T11:34:21;6.90;;;6.20;;
35324;SDS011;35135;47.510;19.036;2023-02-13T11:36:53;6.90;;;6.20;;
35324;SDS011;35135;47.510;19.036;2023-02-13T11:39:41;7.28;;;6.30;;
35324;SDS011;35135;47.510;19.036;2023-02-13T11:42:23;7.65;;;6.85;;
35324;SDS011;35135;47.510;19.036;2023-02-13T11:47:47;8.25;;;6.65;;
35324;SDS011;35135;47.510;19.036;2023-02-13T11:55:35;7.82;;;7.03;;
35324;SDS011;35135;47.510;19.036;2023-02-13T11:58:04;7.43;;;6.60;;
35324;SDS011;35135;47.510;19.036;2023-02-13T12:00:50;6.90;;;6.20;;
35324;SDS011;35135;47.510;19.036;2023-02-13T12:03:43;7.50;;;6.80;;
35324;SDS011;35135;47.510;19.036;2023-02-13T12:06:37;6.88;;;6.18;;
35324;SDS011;35135;47.510;19.036;2023-02-13T12:09:13;6.93;;;6.22;;
35324;SDS011;35135;47.510;19.036;2023-02-13T12:11:44;7.93;;;6.15;;
35324;SDS011;35135;47.510;19.036;2023-02-13T12:14:19;6.55;;;5.95;;
35324;SDS011;35135;47.510;19.036;2023-02-13T12:17:11;8.15;;;6.80;;
35324;SDS011;35135;47.510;19.036;2023-02-13T12:19:45;6.90;;;6.20;;
35324;SDS011;35135;47.510;19.036;2023-02-13T12:27:59;7.47;;;6.68;;
35324;SDS011;35135;47.510;19.036;2023-02-13T12:30:32;7.18;;;6.47;;
35324;SDS011;35135;47.510;19.036;2023-02-13T12:52:31;6.88;;;6.18;;
35324;SDS011;35135;47.510;19.036;2023-02-13T13:03:45;6.75;;;5.90;;
35324;SDS011;35135;47.510;19.036;2023-02-13T13:22:11;6.13;;;5.43;;
35324;SDS011;35135;47.510;19.036;2023-02-13T13:24:53;6.65;;;5.95;;
35324;SDS011;35135;47.510;19.036;2023-02-13T13:27:42;7.43;;;6.68;;
35324;SDS011;35135;47.510;19.036;2023-02-13T13:30:22;7.88;;;6.45;;
35324;SDS011;35135;47.510;19.036;2023-02-13T13:33:12;6.40;;;5.78;;
35324;SDS011;35135;47.510;19.036;2023-02-13T13:35:46;6.35;;;5.65;;
35324;SDS011;35135;47.510;19.036;2023-02-13T13:38:24;6.43;;;5.82;;
35324;SDS011;35135;47.510;19.036;2023-02-13T13:41:27;6.10;;;5.47;;
35324;SDS011;35135;47.510;19.036;2023-02-13T13:46:53;6.80;;;6.00;;
35324;SDS011;35135;47.510;19.036;2023-02-13T13:54:51;6.28;;;5.68;;
35324;SDS011;35135;47.510;19.036;2023-02-13T13:58:03;5.60;;;5.00;;
35324;SDS011;35135;47.510;19.036;2023-02-13T14:02:37;6.30;;;5.28;;
35324;SDS011;35135;47.510;19.036;2023-02-13T14:07:44;5.28;;;4.78;;
35324;SDS011;35135;47.510;19.036;2023-02-13T14:12:51;5.45;;;4.95;;
35324;SDS011;35135;47.510;19.036;2023-02-13T14:23:07;5.30;;;4.80;;
35324;SDS011;35135;47.510;19.036;2023-02-13T14:25:37;5.95;;;5.32;;
35324;SDS011;35135;47.510;19.036;2023-02-13T14:28:03;5.93;;;5.18;;
35324;SDS011;35135;47.510;19.036;2023-02-13T14:30:34;6.90;;;5.55;;
35324;SDS011;35135;47.510;19.036;2023-02-13T14:33:03;5.00;;;4.53;;
35324;SDS011;35135;47.510;19.036;2023-02-13T14:35:34;5.03;;;4.47;;
35324;SDS011;35135;47.510;19.036;2023-02-13T14:38:03;5.65;;;5.07;;
35324;SDS011;35135;47.510;19.036;2023-02-13T14:40:50;5.38;;;4.72;;
35324;SDS011;35135;47.510;19.036;2023-02-13T14:51:47;5.38;;;4.88;;
35324;SDS011;35135;47.510;19.036;2023-02-13T14:54:30;5.30;;;4.80;;
35324;SDS011;35135;47.510;19.036;2023-02-13T14:57:44;5.13;;;4.63;;
35324;SDS011;35135;47.510;19.036;2023-02-13T14:59:48;5.93;;;4.93;;
35324;SDS011;35135;47.510;19.036;2023-02-13T15:02:36;5.57;;;5.00;;
35324;SDS011;35135;47.510;19.036;2023-02-13T15:10:43;5.93;;;5.00;;
35324;SDS011;35135;47.510;19.036;2023-02-13T15:15:49;5.20;;;4.70;;
35324;SDS011;35135;47.510;19.036;2023-02-13T15:18:21;6.60;;;4.95;;
35324;SDS011;35135;47.510;19.036;2023-02-13T15:20:51;5.03;;;4.38;;
35324;SDS011;35135;47.510;19.036;2023-02-13T15:23:24;5.63;;;4.80;;
35324;SDS011;35135;47.510;19.036;2023-02-13T15:26:00;5.78;;;4.50;;
35324;SDS011;35135;47.510;19.036;2023-02-13T15:28:30;4.80;;;4.22;;
35324;SDS011;35135;47.510;19.036;2023-02-13T15:31:01;5.53;;;4.55;;
35324;SDS011;35135;47.510;19.036;2023-02-13T15:36:52;5.85;;;5.10;;
35324;SDS011;35135;47.510;19.036;2023-02-13T15:39:04;5.03;;;4.53;;
35324;SDS011;35135;47.510;19.036;2023-02-13T15:41:33;5.13;;;4.63;;
35324;SDS011;35135;47.510;19.036;2023-02-13T15:44:02;5.82;;;4.38;;
35324;SDS011;35135;47.510;19.036;2023-02-13T15:48:59;5.90;;;5.10;;
35324;SDS011;35135;47.510;19.036;2023-02-13T15:51:30;5.32;;;4.45;;
35324;SDS011;35135;47.510;19.036;2023-02-13T15:54:05;4.65;;;4.10;;
35324;SDS011;35135;47.510;19.036;2023-02-13T15:56:45;4.95;;;4.45;;
35324;SDS011;35135;47.510;19.036;2023-02-13T15:59:12;4.93;;;4.03;;
35324;SDS011;35135;47.510;19.036;2023-02-13T16:01:39;5.38;;;4.80;;
35324;SDS011;35135;47.510;19.036;2023-02-13T16:04:08;4.78;;;4.38;;
35324;SDS011;35135;47.510;19.036;2023-02-13T16:06:37;4.85;;;4.32;;
35324;SDS011;35135;47.510;19.036;2023-02-13T16:09:04;5.32;;;4.32;;
35324;SDS011;35135;47.510;19.036;2023-02-13T16:11:34;4.55;;;4.15;;
35324;SDS011;35135;47.510;19.036;2023-02-13T16:14:16;5.07;;;4.35;;
35324;SDS011;35135;47.510;19.036;2023-02-13T16:22:13;5.57;;;4.55;;
35324;SDS011;35135;47.510;19.036;2023-02-13T16:24:52;4.75;;;4.25;;
35324;SDS011;35135;47.510;19.036;2023-02-13T16:27:24;4.78;;;3.80;;
35324;SDS011;35135;47.510;19.036;2023-02-13T16:30:01;5.03;;;4.32;;
35324;SDS011;35135;47.510;19.036;2023-02-13T16:32:30;5.03;;;4.53;;
35324;SDS011;35135;47.510;19.036;2023-02-13T16:37:55;4.40;;;4.00;;
35324;SDS011;35135;47.510;19.036;2023-02-13T16:46:11;4.63;;;4.13;;
35324;SDS011;35135;47.510;19.036;2023-02-13T16:48:42;4.40;;;4.00;;
35324;SDS011;35135;47.510;19.036;2023-02-13T16:51:37;4.75;;;4.25;;
35324;SDS011;35135;47.510;19.036;2023-02-13T16:56:39;4.57;;;4.05;;
35324;SDS011;35135;47.510;19.036;2023-02-13T17:01:44;5.13;;;3.53;;
35324;SDS011;35135;47.510;19.036;2023-02-13T17:04:31;4.13;;;3.72;;
35324;SDS011;35135;47.510;19.036;2023-02-13T17:06:56;4.10;;;3.70;;
35324;SDS011;35135;47.510;19.036;2023-02-13T17:09:21;4.80;;;4.30;;
35324;SDS011;35135;47.510;19.036;2023-02-13T17:11:50;4.22;;;3.83;;
35324;SDS011;35135;47.510;19.036;2023-02-13T17:14:17;4.43;;;4.03;;
35324;SDS011;35135;47.510;19.036;2023-02-13T17:16:44;4.10;;;3.63;;
35324;SDS011;35135;47.510;19.036;2023-02-13T17:19:11;4.70;;;4.00;;
35324;SDS011;35135;47.510;19.036;2023-02-13T17:21:37;3.92;;;3.53;;
35324;SDS011;35135;47.510;19.036;2023-02-13T17:24:03;4.60;;;3.92;;
35324;SDS011;35135;47.510;19.036;2023-02-13T17:26:30;4.00;;;3.60;;
35324;SDS011;35135;47.510;19.036;2023-02-13T17:28:56;5.35;;;3.50;;
35324;SDS011;35135;47.510;19.036;2023-02-13T17:31:21;4.18;;;3.78;;
35324;SDS011;35135;47.510;19.036;2023-02-13T17:33:47;4.10;;;3.70;;
35324;SDS011;35135;47.510;19.036;2023-02-13T17:36:13;3.95;;;3.55;;
35324;SDS011;35135;47.510;19.036;2023-02-13T17:38:39;4.03;;;3.50;;
35324;SDS011;35135;47.510;19.036;2023-02-13T17:41:05;3.60;;;3.30;;
35324;SDS011;35135;47.510;19.036;2023-02-13T17:43:38;5.13;;;3.90;;
35324;SDS011;35135;47.510;19.036;2023-02-13T17:46:03;4.45;;;3.67;;
35324;SDS011;35135;47.510;19.036;2023-02-13T17:48:29;3.95;;;3.53;;
35324;SDS011;35135;47.510;19.036;2023-02-13T17:50:55;3.95;;;3.38;;
35324;SDS011;35135;47.510;19.036;2023-02-13T17:53:24;4.05;;;3.65;;
35324;SDS011;35135;47.510;19.036;2023-02-13T17:55:53;3.85;;;3.25;;
35324;SDS011;35135;47.510;19.036;2023-02-13T17:58:19;4.28;;;3.35;;
35324;SDS011;35135;47.510;19.036;2023-02-13T18:00:45;3.97;;;3.50;;
35324;SDS011;35135;47.510;19.036;2023-02-13T18:03:11;4.00;;;3.55;;
35324;SDS011;35135;47.510;19.036;2023-02-13T18:05:37;5.05;;;3.70;;
35324;SDS011;35135;47.510;19.036;2023-02-13T18:08:03;3.60;;;3.30;;
35324;SDS011;35135;47.510;19.036;2023-02-13T18:10:30;4.03;;;3.63;;
35324;SDS011;35135;47.510;19.036;2023-02-13T18:12:57;3.83;;;3.20;;
35324;SDS011;35135;47.510;19.036;2023-02-13T18:15:38;4.60;;;3.97;;